Pagrindinis puslapis
METAR-TAF:

METAR-TAF

Oro uostai :

Kos, Graikija

platuma: 36-47N, ilguma: 027-04E, Aukštis: 129 m

Dabartinis oras

Ataskaita buvo paskelbta 24 minutes, ne 22:20 UTC
Vėjas 6 kt iš Pietų
Temperatūra 17°C
Drėgmė 88%
Slėgis 1011 hPa
Matomumas 10 km arba daugiau
Išsisklaidę debesys ne aukštis 1000 ft

METAR: LGKO 172220Z 19006KT 9999 SCT010 17/15 Q1011

Laikas: 01:44 (22:44 UTC)

Prognozė

Ataskaita buvo paskelbta 5 valandos ir 44 minutes, ne 17:00 UTC
Prognozė galioja nuo 17 metu 18 UTC su 18 metu 18 UTC
Vėjas 10 kt iš Pietvakarių
Matomumas 10 km arba daugiau
Mažai debesys ne aukštis 2000 ft

TAF: LGKO 171700Z 1718/1818 22010KT 9999 FEW020

Orai ataskaitas ir orų prognozės (METAR, TAF).

turimą stotys yra geltonos ir raudonos taškus žemėlapyje.

Perkelti pele per norėdami pamatyti stoties vardą.

Tada spustelėkite, norėdami matyti oro stebėjimo ir prognozės.

Norėdami pakeisti žemėlapį: spustelėkite ant žalios mygtukų su juodo kryžiaus žemyn,; žalią mygtuką su brūkšneliu, jei norite nutolinti; arba žalių rodyklių gretimoms žemėlapius.


METAR-TAF: